Time,TemperatureF,DewpointF,PressureIn,WindDirection,WindDirectionDegrees,WindSpeedMPH,WindSpeedGustMPH,Humidity,HourlyPrecipIn,Conditions,Clouds,dailyrainin,SoftwareType,DateUTC
2013-06-11 00:01:00,65.5,63.7,29.79,NNE,22,0.0,0.0,94,0.00,RMK 74.5/56.0,,0.00,WUHU21623XXSP,2013-06-11 04:01:00,
2013-06-11 00:06:00,65.3,63.5,29.79,NE,45,0.0,0.0,94,0.00,RMK 74.5/57.0,,0.00,WUHU21623XXSP,2013-06-11 04:06:00,
2013-06-11 00:11:00,65.3,63.5,29.80,NNE,22,0.0,0.0,94,0.00,RMK 74.5/57.0,,0.00,WUHU21623XXSP,2013-06-11 04:11:00,
2013-06-11 00:17:00,65.3,63.5,29.80,NNE,22,0.0,0.0,94,0.00,RMK 74.5/57.0,,0.00,WUHU21623XXSP,2013-06-11 04:17:00,
2013-06-11 00:22:00,65.2,63.7,29.80,NNE,22,0.0,0.0,95,0.00,RMK 74.5/57.0,,0.00,WUHU21623XXSP,2013-06-11 04:22:00,
2013-06-11 00:27:00,65.2,63.7,29.79,North,0,0.0,0.0,95,0.00,RMK 74.5/57.0,,0.00,WUHU21623XXSP,2013-06-11 04:27:00,
2013-06-11 00:32:00,65.2,63.7,29.80,North,0,0.0,0.0,95,0.00,RMK 74.5/57.0,,0.00,WUHU21623XXSP,2013-06-11 04:32:00,
2013-06-11 00:37:00,65.0,63.5,29.80,ESE,112,0.0,0.0,95,0.00,RMK 74.5/57.0,,0.00,WUHU21623XXSP,2013-06-11 04:37:00,
2013-06-11 00:42:00,65.0,63.5,29.80,North,0,0.0,0.0,95,0.00,RMK 74.5/57.0,,0.00,WUHU21623XXSP,2013-06-11 04:42:00,
2013-06-11 00:47:00,64.8,63.3,29.80,North,0,0.0,0.0,95,0.00,RMK 74.5/57.0,,0.00,WUHU21623XXSP,2013-06-11 04:47:00,
2013-06-11 00:52:00,64.8,63.3,29.80,North,0,0.0,0.0,95,0.00,RMK 74.5/57.0,,0.00,WUHU21623XXSP,2013-06-11 04:52:00,
2013-06-11 00:57:00,64.8,63.3,29.80,NNE,22,0.0,0.0,95,0.00,RMK 74.5/57.0,,0.00,WUHU21623XXSP,2013-06-11 04:57:00,
2013-06-11 01:02:00,64.8,63.3,29.80,North,0,0.0,0.0,95,0.00,RMK 74.3/57.0,,0.00,WUHU21623XXSP,2013-06-11 05:02:00,
2013-06-11 01:07:00,64.6,63.1,29.80,North,0,0.0,0.0,95,0.00,RMK 74.5/57.0,,0.00,WUHU21623XXSP,2013-06-11 05:07:00,
2013-06-11 01:12:00,64.4,62.9,29.80,North,0,0.0,0.0,95,0.00,RMK 74.5/57.0,,0.00,WUHU21623XXSP,2013-06-11 05:12:00,
2013-06-11 01:17:00,64.4,62.9,29.80,NNE,22,0.0,0.0,95,0.00,RMK 74.3/58.0,,0.00,WUHU21623XXSP,2013-06-11 05:17:00,
2013-06-11 01:22:00,64.4,62.9,29.80,NNE,22,0.0,0.0,95,0.00,RMK 74.5/58.0,,0.00,WUHU21623XXSP,2013-06-11 05:22:00,
2013-06-11 01:27:00,64.3,62.8,29.80,NNW,337,0.0,0.0,95,0.00,RMK 74.3/58.0,,0.00,WUHU21623XXSP,2013-06-11 05:27:00,
2013-06-11 01:32:00,64.3,62.8,29.80,North,0,0.0,0.0,95,0.00,RMK 74.3/58.0,,0.00,WUHU21623XXSP,2013-06-11 05:32:00,
2013-06-11 01:37:00,64.1,62.6,29.80,North,0,0.0,0.0,95,0.00,RMK 74.5/58.0,,0.00,WUHU21623XXSP,2013-06-11 05:37:00,
2013-06-11 01:42:00,64.1,62.6,29.80,NNW,337,0.0,0.0,95,0.00,RMK 74.5/58.0,,0.00,WUHU21623XXSP,2013-06-11 05:42:00,
2013-06-11 01:47:00,63.9,62.4,29.80,NNW,337,0.0,0.0,95,0.00,RMK 74.3/58.0,,0.00,WUHU21623XXSP,2013-06-11 05:47:00,
2013-06-11 01:52:00,63.9,62.4,29.80,North,0,0.0,0.0,95,0.00,RMK 74.3/58.0,,0.00,WUHU21623XXSP,2013-06-11 05:52:00,
2013-06-11 01:57:00,63.7,62.2,29.80,NNW,337,0.0,0.0,95,0.00,RMK 74.3/58.0,,0.00,WUHU21623XXSP,2013-06-11 05:57:00,
2013-06-11 02:02:00,63.7,62.2,29.80,NNE,22,0.0,0.0,95,0.00,RMK 74.3/58.0,,0.00,WUHU21623XXSP,2013-06-11 06:02:00,
2013-06-11 02:07:00,63.5,62.0,29.81,North,0,0.0,0.0,95,0.00,RMK 74.3/58.0,,0.00,WUHU21623XXSP,2013-06-11 06:07:00,
2013-06-11 02:12:00,63.5,62.0,29.81,NNE,22,0.0,0.0,95,0.00,RMK 74.3/58.0,,0.00,WUHU21623XXSP,2013-06-11 06:12:00,
2013-06-11 02:17:00,63.4,61.9,29.80,North,0,0.0,0.0,95,0.00,RMK 74.3/58.0,,0.00,WUHU21623XXSP,2013-06-11 06:17:00,
2013-06-11 02:22:00,63.4,61.9,29.80,North,0,0.0,0.0,95,0.00,RMK 74.3/58.0,,0.00,WUHU21623XXSP,2013-06-11 06:22:00,
2013-06-11 02:27:00,63.4,61.9,29.80,NNE,22,0.0,0.0,95,0.00,RMK 74.3/58.0,,0.00,WUHU21623XXSP,2013-06-11 06:27:00,
2013-06-11 02:32:00,63.2,61.7,29.81,North,0,0.0,0.0,95,0.00,RMK 74.3/58.0,,0.00,WUHU21623XXSP,2013-06-11 06:32:00,
2013-06-11 02:37:00,63.2,61.7,29.80,North,0,0.0,0.0,95,0.00,RMK 74.3/58.0,,0.00,WUHU21623XXSP,2013-06-11 06:37:00,
2013-06-11 02:42:00,63.2,61.7,29.81,North,0,0.0,0.0,95,0.00,RMK 74.3/58.0,,0.00,WUHU21623XXSP,2013-06-11 06:42:00,
2013-06-11 02:47:00,63.2,61.7,29.80,NNE,22,0.0,0.0,95,0.00,RMK 74.3/58.0,,0.00,WUHU21623XXSP,2013-06-11 06:47:00,
2013-06-11 02:52:00,63.2,61.7,29.81,NNE,22,0.0,0.0,95,0.00,RMK 74.3/58.0,,0.00,WUHU21623XXSP,2013-06-11 06:52:00,
2013-06-11 02:57:00,63.5,62.0,29.81,North,0,0.0,0.0,95,0.00,RMK 74.3/58.0,,0.00,WUHU21623XXSP,2013-06-11 06:57:00,
2013-06-11 03:02:00,63.4,61.9,29.82,North,0,0.0,0.0,95,0.00,RMK 74.3/58.0,,0.00,WUHU21623XXSP,2013-06-11 07:02:00,
2013-06-11 03:07:00,63.5,62.0,29.81,North,0,0.0,0.0,95,0.00,RMK 74.3/58.0,,0.00,WUHU21623XXSP,2013-06-11 07:07:00,
2013-06-11 03:12:00,63.5,62.0,29.82,North,0,0.0,0.0,95,0.00,RMK 74.3/58.0,,0.00,WUHU21623XXSP,2013-06-11 07:12:00,
2013-06-11 03:17:00,63.4,61.9,29.82,North,0,0.0,0.0,95,0.00,RMK 74.3/58.0,,0.00,WUHU21623XXSP,2013-06-11 07:17:00,
2013-06-11 03:22:00,63.4,61.9,29.82,NNW,337,0.0,0.0,95,0.00,RMK 74.3/58.0,,0.00,WUHU21623XXSP,2013-06-11 07:22:00,
2013-06-11 03:27:00,63.4,61.9,29.82,North,0,0.0,0.0,95,0.00,RMK 74.3/58.0,,0.00,WUHU21623XXSP,2013-06-11 07:27:00,
2013-06-11 03:32:00,63.4,61.9,29.82,NNE,22,0.0,0.0,95,0.00,RMK 74.3/58.0,,0.00,WUHU21623XXSP,2013-06-11 07:32:00,
2013-06-11 03:37:00,63.4,61.9,29.82,NNE,22,0.0,0.0,95,0.00,RMK 74.3/58.0,,0.00,WUHU21623XXSP,2013-06-11 07:37:00,
2013-06-11 03:42:00,63.4,61.9,29.82,NNE,22,0.0,0.0,95,0.00,RMK 74.3/58.0,,0.00,WUHU21623XXSP,2013-06-11 07:42:00,
2013-06-11 03:47:00,63.2,61.7,29.82,North,0,0.0,0.0,95,0.00,RMK 74.3/58.0,,0.00,WUHU21623XXSP,2013-06-11 07:47:00,
2013-06-11 03:52:00,63.2,61.7,29.82,North,0,0.0,0.0,95,0.00,RMK 74.3/58.0,,0.00,WUHU21623XXSP,2013-06-11 07:52:00,
2013-06-11 03:57:00,63.2,61.7,29.82,North,0,0.0,0.0,95,0.00,RMK 74.3/58.0,,0.00,WUHU21623XXSP,2013-06-11 07:57:00,
2013-06-11 04:02:00,63.2,61.7,29.82,North,0,0.0,0.0,95,0.00,RMK 74.3/58.0,,0.00,WUHU21623XXSP,2013-06-11 08:02:00,
2013-06-11 04:07:00,63.4,61.9,29.82,NE,45,0.0,0.0,95,0.00,RMK 74.3/58.0,,0.00,WUHU21623XXSP,2013-06-11 08:07:00,
2013-06-11 04:12:00,63.2,61.7,29.82,NNE,22,0.0,0.0,95,0.00,RMK 74.3/58.0,,0.00,WUHU21623XXSP,2013-06-11 08:12:00,
2013-06-11 04:17:00,63.2,61.7,29.82,North,0,0.0,0.0,95,0.00,RMK 74.3/58.0,,0.00,WUHU21623XXSP,2013-06-11 08:17:00,
2013-06-11 04:22:00,63.2,61.7,29.82,North,0,0.0,0.0,95,0.00,RMK 74.3/58.0,,0.00,WUHU21623XXSP,2013-06-11 08:22:00,
2013-06-11 04:27:00,63.2,62.0,29.82,North,0,0.0,0.0,96,0.00,RMK 74.3/58.0,,0.00,WUHU21623XXSP,2013-06-11 08:27:00,
2013-06-11 04:32:00,63.2,62.0,29.82,North,0,0.0,0.0,96,0.00,RMK 74.3/58.0,,0.00,WUHU21623XXSP,2013-06-11 08:32:00,
2013-06-11 04:37:00,63.2,62.0,29.82,North,0,0.0,0.0,96,0.00,RMK 74.3/58.0,,0.00,WUHU21623XXSP,2013-06-11 08:37:00,
2013-06-11 04:42:00,63.2,62.0,29.82,North,0,0.0,0.0,96,0.00,RMK 74.3/58.0,,0.00,WUHU21623XXSP,2013-06-11 08:42:00,
2013-06-11 04:47:00,63.2,62.0,29.82,North,0,0.0,0.0,96,0.00,RMK 74.3/58.0,,0.00,WUHU21623XXSP,2013-06-11 08:47:00,
2013-06-11 04:52:00,63.2,62.0,29.83,North,0,0.0,0.0,96,0.00,RMK 74.3/58.0,,0.00,WUHU21623XXSP,2013-06-11 08:52:00,
2013-06-11 04:57:00,63.2,62.0,29.83,NNE,22,0.0,0.0,96,0.00,RMK 74.3/58.0,,0.00,WUHU21623XXSP,2013-06-11 08:57:00,
2013-06-11 05:02:00,63.2,62.0,29.83,North,0,0.0,0.0,96,0.00,RMK 74.3/58.0,,0.00,WUHU21623XXSP,2013-06-11 09:02:00,
2013-06-11 05:07:00,63.2,62.0,29.83,NW,315,0.0,0.0,96,0.00,RMK 74.3/58.0,,0.00,WUHU21623XXSP,2013-06-11 09:07:00,
2013-06-11 05:12:00,63.2,62.0,29.84,North,0,0.0,0.0,96,0.00,RMK 74.3/58.0,,0.00,WUHU21623XXSP,2013-06-11 09:12:00,
2013-06-11 05:17:00,63.2,62.0,29.84,NNW,337,0.0,0.0,96,0.00,RMK 74.3/59.0,,0.00,WUHU21623XXSP,2013-06-11 09:17:00,
2013-06-11 05:22:00,63.0,61.8,29.84,North,0,0.0,0.0,96,0.00,RMK 74.1/59.0,,0.00,WUHU21623XXSP,2013-06-11 09:22:00,
2013-06-11 05:27:00,63.2,62.0,29.84,North,0,0.0,0.0,96,0.00,RMK 74.1/59.0,,0.00,WUHU21623XXSP,2013-06-11 09:27:00,
2013-06-11 05:32:00,63.0,61.8,29.84,NNW,337,0.0,0.0,96,0.00,RMK 74.1/59.0,,0.00,WUHU21623XXSP,2013-06-11 09:32:00,
2013-06-11 05:37:00,63.0,61.8,29.85,North,0,0.0,0.0,96,0.00,RMK 74.1/60.0,,0.00,WUHU21623XXSP,2013-06-11 09:37:00,
2013-06-11 05:42:00,63.0,61.8,29.85,NNE,22,0.0,0.0,96,0.00,RMK 74.3/60.0,,0.00,WUHU21623XXSP,2013-06-11 09:42:00,
2013-06-11 05:47:00,63.0,61.8,29.85,North,0,0.0,0.0,96,0.00,RMK 74.3/60.0,,0.00,WUHU21623XXSP,2013-06-11 09:47:00,
2013-06-11 05:52:00,63.0,61.8,29.85,NNE,22,0.0,0.0,96,0.00,RMK 74.5/60.0,,0.00,WUHU21623XXSP,2013-06-11 09:52:00,
2013-06-11 05:57:00,63.0,61.8,29.85,North,0,0.0,0.0,96,0.00,RMK 74.5/60.0,,0.00,WUHU21623XXSP,2013-06-11 09:57:00,
2013-06-11 06:02:00,63.0,61.8,29.85,North,0,0.0,0.0,96,0.00,RMK 74.5/60.0,,0.00,WUHU21623XXSP,2013-06-11 10:02:00,
2013-06-11 06:07:00,63.0,61.8,29.85,NNW,337,0.0,0.0,96,0.00,RMK 74.7/59.0,,0.00,WUHU21623XXSP,2013-06-11 10:07:00,
2013-06-11 06:12:00,63.0,61.8,29.85,NNW,337,0.0,0.0,96,0.00,RMK 74.7/59.0,,0.00,WUHU21623XXSP,2013-06-11 10:12:00,
2013-06-11 06:17:00,63.0,61.8,29.85,NW,315,0.0,0.0,96,0.00,RMK 74.8/59.0,,0.00,WUHU21623XXSP,2013-06-11 10:17:00,
2013-06-11 06:22:00,63.0,61.8,29.85,NW,315,0.0,0.0,96,0.00,RMK 74.8/59.0,,0.00,WUHU21623XXSP,2013-06-11 10:22:00,
2013-06-11 06:27:00,63.0,61.8,29.84,NW,315,0.0,0.0,96,0.00,RMK 74.8/59.0,,0.00,WUHU21623XXSP,2013-06-11 10:27:00,
2013-06-11 06:32:00,63.0,61.8,29.85,WNW,292,0.0,0.0,96,0.00,RMK 75.0/59.0,,0.00,WUHU21623XXSP,2013-06-11 10:32:00,
2013-06-11 06:37:00,63.0,61.8,29.86,WNW,292,0.0,0.0,96,0.00,RMK 75.0/59.0,,0.00,WUHU21623XXSP,2013-06-11 10:37:00,
2013-06-11 06:42:00,63.2,62.0,29.86,NW,315,0.0,0.0,96,0.00,RMK 75.0/59.0,,0.00,WUHU21623XXSP,2013-06-11 10:42:00,
2013-06-11 06:47:00,63.0,61.8,29.87,North,0,0.0,0.0,96,0.00,RMK 75.0/59.0,,0.00,WUHU21623XXSP,2013-06-11 10:47:00,
2013-06-11 06:52:00,63.0,61.8,29.87,NNE,22,0.0,0.0,96,0.00,RMK 75.0/59.0,,0.00,WUHU21623XXSP,2013-06-11 10:52:00,
2013-06-11 06:57:00,63.0,61.8,29.86,North,0,0.0,0.0,96,0.00,RMK 75.0/59.0,,0.00,WUHU21623XXSP,2013-06-11 10:57:00,
2013-06-11 07:02:00,63.2,62.0,29.87,North,0,0.0,0.0,96,0.00,RMK 75.0/59.0,,0.00,WUHU21623XXSP,2013-06-11 11:02:00,
2013-06-11 07:07:00,63.0,61.8,29.87,North,0,0.0,0.0,96,0.00,RMK 75.0/59.0,,0.00,WUHU21623XXSP,2013-06-11 11:07:00,
2013-06-11 07:12:00,63.2,62.0,29.88,North,0,0.0,0.0,96,0.00,RMK 75.0/58.0,,0.00,WUHU21623XXSP,2013-06-11 11:12:00,
2013-06-11 07:17:00,63.2,62.0,29.87,North,0,0.0,0.0,96,0.00,RMK 75.0/58.0,,0.00,WUHU21623XXSP,2013-06-11 11:17:00,
2013-06-11 07:22:00,63.2,62.0,29.88,North,0,0.0,0.0,96,0.00,RMK 74.8/58.0,,0.00,WUHU21623XXSP,2013-06-11 11:22:00,
2013-06-11 07:27:00,63.2,62.0,29.88,NNW,337,0.0,0.0,96,0.00,RMK 74.8/58.0,,0.00,WUHU21623XXSP,2013-06-11 11:27:00,
2013-06-11 07:32:00,63.2,62.0,29.88,North,0,0.0,0.0,96,0.00,RMK 74.8/58.0,,0.00,WUHU21623XXSP,2013-06-11 11:32:00,
2013-06-11 07:37:00,63.2,62.0,29.87,North,0,0.0,0.0,96,0.00,RMK 74.8/59.0,,0.00,WUHU21623XXSP,2013-06-11 11:37:00,
2013-06-11 07:42:00,63.2,62.0,29.88,NNW,337,0.0,0.0,96,0.00,RMK 74.8/60.0,,0.00,WUHU21623XXSP,2013-06-11 11:42:00,
2013-06-11 07:47:00,63.4,62.2,29.88,North,0,0.0,0.0,96,0.00,RMK 74.7/61.0,,0.00,WUHU21623XXSP,2013-06-11 11:47:00,
2013-06-11 07:52:00,63.5,62.3,29.88,NNW,337,0.0,0.0,96,0.00,RMK 74.5/61.0,,0.00,WUHU21623XXSP,2013-06-11 11:52:00,
2013-06-11 07:57:00,63.4,62.2,29.88,NNE,22,0.0,0.0,96,0.00,RMK 74.3/62.0,,0.00,WUHU21623XXSP,2013-06-11 11:57:00,
2013-06-11 08:02:00,63.5,62.3,29.88,NW,315,0.0,0.0,96,0.00,RMK 74.1/62.0,,0.00,WUHU21623XXSP,2013-06-11 12:02:00,
2013-06-11 08:07:00,63.5,62.3,29.88,North,0,0.0,0.0,96,0.00,RMK 74.1/62.0,,0.00,WUHU21623XXSP,2013-06-11 12:07:00,
2013-06-11 08:12:00,63.7,62.5,29.89,NW,315,0.0,0.0,96,0.00,RMK 73.9/62.0,,0.00,WUHU21623XXSP,2013-06-11 12:12:00,
2013-06-11 08:17:00,63.7,62.5,29.89,NNE,22,0.0,0.0,96,0.00,RMK 73.8/61.0,,0.00,WUHU21623XXSP,2013-06-11 12:17:00,
2013-06-11 08:22:00,63.7,62.5,29.88,North,0,0.0,0.0,96,0.00,RMK 73.9/59.0,,0.00,WUHU21623XXSP,2013-06-11 12:22:00,
2013-06-11 08:27:00,63.9,62.7,29.89,NNW,337,0.0,0.0,96,0.00,RMK 73.9/58.0,,0.00,WUHU21623XXSP,2013-06-11 12:27:00,
2013-06-11 08:32:00,64.1,62.9,29.89,WNW,292,0.0,0.0,96,0.00,RMK 73.9/58.0,,0.00,WUHU21623XXSP,2013-06-11 12:32:00,
2013-06-11 08:37:00,64.3,63.1,29.89,North,0,0.0,0.0,96,0.00,RMK 73.9/58.0,,0.00,WUHU21623XXSP,2013-06-11 12:37:00,
2013-06-11 08:42:00,64.1,62.9,29.89,WNW,292,0.0,0.0,96,0.00,RMK 73.9/57.0,,0.00,WUHU21623XXSP,2013-06-11 12:42:00,
2013-06-11 08:47:00,64.1,62.9,29.89,NNW,337,0.0,0.0,96,0.00,RMK 73.9/57.0,,0.00,WUHU21623XXSP,2013-06-11 12:47:00,
2013-06-11 08:52:00,64.3,63.1,29.89,North,0,0.0,0.0,96,0.00,RMK 73.9/57.0,,0.00,WUHU21623XXSP,2013-06-11 12:52:00,
2013-06-11 08:57:00,64.4,63.2,29.89,North,0,0.0,0.0,96,0.00,RMK 73.9/57.0,,0.00,WUHU21623XXSP,2013-06-11 12:57:00,
2013-06-11 09:02:00,64.6,63.4,29.89,NNE,22,0.0,0.0,96,0.00,RMK 73.9/56.0,,0.00,WUHU21623XXSP,2013-06-11 13:02:00,
2013-06-11 09:07:00,65.0,63.8,29.89,NNW,337,0.0,0.0,96,0.00,RMK 73.9/56.0,,0.00,WUHU21623XXSP,2013-06-11 13:07:00,
2013-06-11 09:12:00,65.0,63.5,29.89,North,0,0.0,0.0,95,0.00,RMK 73.9/57.0,,0.00,WUHU21623XXSP,2013-06-11 13:12:00,
2013-06-11 09:17:00,65.3,64.1,29.89,North,0,0.0,0.0,96,0.00,RMK 73.9/56.0,,0.00,WUHU21623XXSP,2013-06-11 13:17:00,
2013-06-11 09:22:00,65.5,64.3,29.89,North,0,0.0,0.0,96,0.00,RMK 73.9/56.0,,0.00,WUHU21623XXSP,2013-06-11 13:22:00,
2013-06-11 09:27:00,65.7,64.2,29.90,NNE,22,0.0,0.0,95,0.00,RMK 73.9/56.0,,0.00,WUHU21623XXSP,2013-06-11 13:27:00,
2013-06-11 09:32:00,65.5,64.0,29.90,NNE,22,0.0,0.0,95,0.00,RMK 73.9/56.0,,0.00,WUHU21623XXSP,2013-06-11 13:32:00,
2013-06-11 09:37:00,65.9,64.4,29.89,NW,315,0.0,0.0,95,0.00,RMK 73.9/55.0,,0.00,WUHU21623XXSP,2013-06-11 13:37:00,
2013-06-11 09:42:00,66.1,64.6,29.89,NW,315,0.0,0.0,95,0.00,RMK 73.8/56.0,,0.00,WUHU21623XXSP,2013-06-11 13:42:00,
2013-06-11 09:47:00,66.2,64.7,29.90,NW,315,0.0,0.0,95,0.00,RMK 73.8/56.0,,0.00,WUHU21623XXSP,2013-06-11 13:47:00,
2013-06-11 09:52:00,66.8,65.0,29.90,North,0,0.0,0.0,94,0.00,RMK 73.8/55.0,,0.00,WUHU21623XXSP,2013-06-11 13:52:00,
2013-06-11 09:57:00,66.8,65.0,29.90,West,270,0.0,0.0,94,0.00,RMK 73.8/56.0,,0.00,WUHU21623XXSP,2013-06-11 13:57:00,
2013-06-11 10:02:00,66.8,65.0,29.90,NNE,22,0.0,0.0,94,0.00,RMK 73.8/55.0,,0.00,WUHU21623XXSP,2013-06-11 14:02:00,
2013-06-11 10:07:00,66.8,64.7,29.90,WNW,292,0.0,0.0,93,0.00,RMK 73.8/56.0,,0.00,WUHU21623XXSP,2013-06-11 14:07:00,
2013-06-11 10:12:00,67.1,65.0,29.90,NW,315,0.0,0.0,93,0.00,RMK 73.8/55.0,,0.00,WUHU21623XXSP,2013-06-11 14:12:00,
2013-06-11 10:17:00,67.3,64.9,29.90,North,0,0.0,0.0,92,0.00,RMK 73.8/56.0,,0.00,WUHU21623XXSP,2013-06-11 14:17:00,
2013-06-11 10:22:00,67.7,65.3,29.90,NE,45,0.0,0.0,92,0.00,RMK 73.8/56.0,,0.00,WUHU21623XXSP,2013-06-11 14:22:00,
2013-06-11 10:27:00,68.0,65.6,29.90,North,0,0.0,0.0,92,0.00,RMK 73.8/55.0,,0.00,WUHU21623XXSP,2013-06-11 14:27:00,
2013-06-11 10:32:00,68.0,65.2,29.90,North,0,0.0,0.0,91,0.00,RMK 73.6/56.0,,0.00,WUHU21623XXSP,2013-06-11 14:32:00,
2013-06-11 10:37:00,68.4,65.6,29.90,North,0,0.0,0.0,91,0.00,RMK 73.6/56.0,,0.00,WUHU21623XXSP,2013-06-11 14:37:00,
2013-06-11 10:42:00,68.4,65.3,29.90,NNW,337,0.0,0.0,90,0.00,RMK 73.6/56.0,,0.00,WUHU21623XXSP,2013-06-11 14:42:00,
2013-06-11 10:47:00,68.6,65.2,29.90,SSW,202,0.0,0.0,89,0.00,RMK 73.6/56.0,,0.00,WUHU21623XXSP,2013-06-11 14:47:00,
2013-06-11 10:52:00,69.1,65.7,29.90,NNE,22,0.0,0.0,89,0.00,RMK 73.6/56.0,,0.00,WUHU21623XXSP,2013-06-11 14:52:00,
2013-06-11 10:57:00,69.8,66.1,29.91,WSW,247,0.0,0.0,88,0.00,RMK 73.6/56.0,,0.00,WUHU21623XXSP,2013-06-11 14:57:00,
2013-06-11 11:02:00,70.0,66.0,29.91,North,0,0.0,0.0,87,0.00,RMK 73.6/56.0,,0.00,WUHU21623XXSP,2013-06-11 15:02:00,
2013-06-11 11:07:00,70.0,65.6,29.91,NW,315,0.0,0.0,86,0.00,RMK 73.6/56.0,,0.00,WUHU21623XXSP,2013-06-11 15:07:00,
2013-06-11 11:12:00,69.8,65.1,29.91,WNW,292,0.0,0.0,85,0.00,RMK 73.6/56.0,,0.00,WUHU21623XXSP,2013-06-11 15:12:00,
2013-06-11 11:17:00,70.2,65.5,29.91,North,0,0.0,0.0,85,0.00,RMK 73.4/56.0,,0.00,WUHU21623XXSP,2013-06-11 15:17:00,
2013-06-11 11:22:00,70.4,65.7,29.91,West,270,0.0,0.0,85,0.00,RMK 73.6/56.0,,0.00,WUHU21623XXSP,2013-06-11 15:22:00,
2013-06-11 11:27:00,70.7,65.7,29.91,WNW,292,0.0,0.0,84,0.00,RMK 73.4/56.0,,0.00,WUHU21623XXSP,2013-06-11 15:27:00,
2013-06-11 11:32:00,70.7,65.3,29.90,WNW,292,0.0,0.0,83,0.00,RMK 73.4/56.0,,0.00,WUHU21623XXSP,2013-06-11 15:32:00,
2013-06-11 11:37:00,70.6,65.2,29.91,NW,315,0.0,0.0,83,0.00,RMK 73.4/56.0,,0.00,WUHU21623XXSP,2013-06-11 15:37:00,
2013-06-11 11:42:00,70.9,65.5,29.91,NNW,337,0.0,0.0,83,0.00,RMK 73.4/56.0,,0.00,WUHU21623XXSP,2013-06-11 15:42:00,
2013-06-11 11:47:00,71.3,65.9,29.91,WNW,292,0.0,0.0,83,0.00,RMK 73.4/56.0,,0.00,WUHU21623XXSP,2013-06-11 15:47:00,
2013-06-11 11:52:00,72.0,66.3,29.91,North,0,0.0,0.0,82,0.00,RMK 73.4/56.0,,0.00,WUHU21623XXSP,2013-06-11 15:52:00,
2013-06-11 11:57:00,72.7,66.3,29.90,NNW,337,0.0,0.0,80,0.00,RMK 73.4/56.0,,0.00,WUHU21623XXSP,2013-06-11 15:57:00,
2013-06-11 12:02:00,72.7,66.3,29.91,WNW,292,0.0,0.0,80,0.00,RMK 73.4/56.0,,0.00,WUHU21623XXSP,2013-06-11 16:02:00,
2013-06-11 12:07:00,72.9,66.5,29.91,WNW,292,0.0,0.0,80,0.00,RMK 73.4/56.0,,0.00,WUHU21623XXSP,2013-06-11 16:07:00,
2013-06-11 12:12:00,73.4,66.9,29.91,North,0,0.0,0.0,80,0.00,RMK 73.4/56.0,,0.00,WUHU21623XXSP,2013-06-11 16:12:00,
2013-06-11 12:17:00,73.6,66.8,29.91,NW,315,0.0,0.0,79,0.00,RMK 73.4/56.0,,0.00,WUHU21623XXSP,2013-06-11 16:17:00,
2013-06-11 12:22:00,73.6,66.4,29.91,NE,45,0.0,0.0,78,0.00,RMK 73.4/56.0,,0.00,WUHU21623XXSP,2013-06-11 16:22:00,
2013-06-11 12:27:00,74.0,66.8,29.92,NNW,337,0.0,0.0,78,0.00,RMK 73.4/56.0,,0.00,WUHU21623XXSP,2013-06-11 16:27:00,
2013-06-11 12:32:00,74.5,66.9,29.92,NW,315,0.0,0.0,77,0.00,RMK 73.4/56.0,,0.00,WUHU21623XXSP,2013-06-11 16:32:00,
2013-06-11 12:37:00,74.5,66.6,29.92,East,90,0.0,0.0,76,0.00,RMK 73.4/56.0,,0.00,WUHU21623XXSP,2013-06-11 16:37:00,
2013-06-11 12:42:00,74.9,67.3,29.92,North,0,0.0,0.0,77,0.00,RMK 73.4/56.0,,0.00,WUHU21623XXSP,2013-06-11 16:42:00,
2013-06-11 12:47:00,75.1,67.5,29.91,North,0,0.0,0.0,77,0.00,RMK 73.4/56.0,,0.00,WUHU21623XXSP,2013-06-11 16:47:00,
2013-06-11 12:52:00,74.9,66.6,29.91,North,0,0.0,0.0,75,0.00,RMK 73.4/56.0,,0.00,WUHU21623XXSP,2013-06-11 16:52:00,
2013-06-11 12:57:00,74.9,67.0,29.92,WNW,292,0.0,0.0,76,0.00,RMK 73.4/55.0,,0.00,WUHU21623XXSP,2013-06-11 16:57:00,
2013-06-11 13:02:00,75.2,66.9,29.91,North,0,0.0,0.0,75,0.00,RMK 73.4/56.0,,0.00,WUHU21623XXSP,2013-06-11 17:02:00,
2013-06-11 13:07:00,75.6,67.3,29.91,NW,315,0.0,0.0,75,0.00,RMK 73.4/56.0,,0.00,WUHU21623XXSP,2013-06-11 17:07:00,
2013-06-11 13:12:00,75.6,66.9,29.91,North,0,0.0,0.0,74,0.00,RMK 73.4/56.0,,0.00,WUHU21623XXSP,2013-06-11 17:12:00,
2013-06-11 13:17:00,76.0,67.3,29.91,North,0,0.0,0.0,74,0.00,RMK 73.4/56.0,,0.00,WUHU21623XXSP,2013-06-11 17:17:00,
2013-06-11 13:22:00,76.1,67.0,29.91,NNE,22,0.0,0.0,73,0.00,RMK 73.4/56.0,,0.00,WUHU21623XXSP,2013-06-11 17:22:00,
2013-06-11 13:27:00,75.8,66.3,29.91,NW,315,0.0,0.0,72,0.00,RMK 73.4/56.0,,0.00,WUHU21623XXSP,2013-06-11 17:27:00,
2013-06-11 13:32:00,76.1,66.6,29.91,NNW,337,0.0,0.0,72,0.00,RMK 73.4/56.0,,0.00,WUHU21623XXSP,2013-06-11 17:32:00,
2013-06-11 13:37:00,76.3,66.8,29.91,NE,45,0.0,0.0,72,0.00,RMK 73.4/56.0,,0.00,WUHU21623XXSP,2013-06-11 17:37:00,
2013-06-11 13:42:00,76.5,66.6,29.90,North,0,0.0,0.0,71,0.00,RMK 73.4/56.0,,0.00,WUHU21623XXSP,2013-06-11 17:42:00,
2013-06-11 13:47:00,76.7,66.8,29.90,WNW,292,0.0,0.0,71,0.00,RMK 73.4/56.0,,0.00,WUHU21623XXSP,2013-06-11 17:47:00,
2013-06-11 13:52:00,77.0,67.1,29.90,WNW,292,0.0,0.0,71,0.00,RMK 73.4/56.0,,0.00,WUHU21623XXSP,2013-06-11 17:52:00,
2013-06-11 13:57:00,77.0,66.7,29.90,WNW,292,0.0,0.0,70,0.00,RMK 73.4/56.0,,0.00,WUHU21623XXSP,2013-06-11 17:57:00,
2013-06-11 14:02:00,77.0,67.1,29.90,WNW,292,0.0,0.0,71,0.00,RMK 73.4/56.0,,0.00,WUHU21623XXSP,2013-06-11 18:02:00,
2013-06-11 14:07:00,77.0,67.1,29.90,NW,315,0.0,0.0,71,0.00,RMK 73.4/55.0,,0.00,WUHU21623XXSP,2013-06-11 18:07:00,
2013-06-11 14:12:00,77.2,66.9,29.90,NW,315,0.0,0.0,70,0.00,RMK 73.6/56.0,,0.00,WUHU21623XXSP,2013-06-11 18:12:00,
2013-06-11 14:17:00,77.2,67.3,29.90,North,0,0.0,0.0,71,0.00,RMK 73.4/55.0,,0.00,WUHU21623XXSP,2013-06-11 18:17:00,
2013-06-11 14:22:00,77.2,67.3,29.90,NNW,337,0.0,0.0,71,0.00,RMK 73.4/56.0,,0.00,WUHU21623XXSP,2013-06-11 18:22:00,
2013-06-11 14:27:00,77.4,67.1,29.89,NW,315,0.0,0.0,70,0.00,RMK 73.6/55.0,,0.00,WUHU21623XXSP,2013-06-11 18:27:00,
2013-06-11 14:32:00,77.6,66.8,29.89,West,270,0.0,0.0,69,0.00,RMK 73.6/56.0,,0.00,WUHU21623XXSP,2013-06-11 18:32:00,
2013-06-11 14:37:00,77.6,66.8,29.89,NW,315,0.0,0.0,69,0.00,RMK 73.4/55.0,,0.00,WUHU21623XXSP,2013-06-11 18:37:00,
2013-06-11 14:42:00,77.8,67.8,29.89,North,0,0.0,0.0,71,0.00,RMK 73.4/55.0,,0.00,WUHU21623XXSP,2013-06-11 18:42:00,
2013-06-11 14:47:00,77.6,67.3,29.89,West,270,0.0,0.0,70,0.00,RMK 73.4/55.0,,0.00,WUHU21623XXSP,2013-06-11 18:47:00,
2013-06-11 14:52:00,77.6,66.8,29.89,West,270,0.0,0.0,69,0.00,RMK 73.4/55.0,,0.00,WUHU21623XXSP,2013-06-11 18:52:00,
2013-06-11 14:57:00,77.2,65.6,29.89,NNE,22,0.0,0.0,67,0.00,RMK 73.4/55.0,,0.00,WUHU21623XXSP,2013-06-11 18:57:00,
2013-06-11 15:02:00,77.4,66.6,29.89,North,0,0.0,0.0,69,0.00,RMK 73.6/55.0,,0.00,WUHU21623XXSP,2013-06-11 19:02:00,
2013-06-11 15:07:00,77.4,66.6,29.89,North,0,0.0,0.0,69,0.00,RMK 73.4/55.0,,0.00,WUHU21623XXSP,2013-06-11 19:07:00,
2013-06-11 15:12:00,77.6,67.3,29.88,North,0,0.0,0.0,70,0.00,RMK 73.4/55.0,,0.00,WUHU21623XXSP,2013-06-11 19:12:00,
2013-06-11 15:17:00,77.8,67.4,29.88,WNW,292,0.0,0.0,70,0.00,RMK 73.6/55.0,,0.00,WUHU21623XXSP,2013-06-11 19:17:00,
2013-06-11 15:22:00,77.9,67.1,29.88,SW,225,0.0,0.0,69,0.00,RMK 73.4/55.0,,0.00,WUHU21623XXSP,2013-06-11 19:22:00,
2013-06-11 15:27:00,77.9,67.5,29.88,WSW,247,0.0,0.0,70,0.00,RMK 73.6/55.0,,0.00,WUHU21623XXSP,2013-06-11 19:27:00,
2013-06-11 15:32:00,78.1,67.3,29.88,NNE,22,0.0,0.0,69,0.00,RMK 73.4/55.0,,0.00,WUHU21623XXSP,2013-06-11 19:32:00,
2013-06-11 15:37:00,78.1,67.3,29.88,North,0,0.0,0.0,69,0.00,RMK 73.6/55.0,,0.00,WUHU21623XXSP,2013-06-11 19:37:00,
2013-06-11 15:42:00,78.1,66.9,29.88,SSE,157,0.0,0.0,68,0.00,RMK 73.4/55.0,,0.00,WUHU21623XXSP,2013-06-11 19:42:00,
2013-06-11 15:47:00,78.1,66.9,29.88,WNW,292,0.0,0.0,68,0.00,RMK 73.6/55.0,,0.00,WUHU21623XXSP,2013-06-11 19:47:00,
2013-06-11 15:52:00,77.8,66.6,29.88,WSW,247,0.0,0.0,68,0.00,RMK 73.4/55.0,,0.00,WUHU21623XXSP,2013-06-11 19:52:00,
2013-06-11 15:57:00,78.1,67.7,29.87,NNE,22,0.0,0.0,70,0.00,RMK 73.6/55.0,,0.00,WUHU21623XXSP,2013-06-11 19:57:00,
2013-06-11 16:02:00,78.1,66.9,29.88,North,0,0.0,0.0,68,0.00,RMK 73.6/55.0,,0.00,WUHU21623XXSP,2013-06-11 20:02:00,
2013-06-11 16:07:00,78.1,66.9,29.87,WNW,292,0.0,0.0,68,0.00,RMK 73.6/55.0,,0.00,WUHU21623XXSP,2013-06-11 20:07:00,
2013-06-11 16:12:00,78.1,66.5,29.87,North,0,0.0,0.0,67,0.00,RMK 73.6/55.0,,0.00,WUHU21623XXSP,2013-06-11 20:12:00,
2013-06-11 16:17:00,78.1,66.0,29.87,NW,315,0.0,0.0,66,0.00,RMK 73.6/56.0,,0.00,WUHU21623XXSP,2013-06-11 20:17:00,
2013-06-11 16:22:00,78.5,66.4,29.87,WNW,292,0.0,0.0,66,0.00,RMK 73.4/56.0,,0.00,WUHU21623XXSP,2013-06-11 20:22:00,
2013-06-11 16:27:00,78.1,66.0,29.87,North,0,0.0,0.0,66,0.00,RMK 73.4/56.0,,0.00,WUHU21623XXSP,2013-06-11 20:27:00,
2013-06-11 16:32:00,78.1,66.5,29.87,SW,225,0.0,0.0,67,0.00,RMK 73.4/57.0,,0.00,WUHU21623XXSP,2013-06-11 20:32:00,
2013-06-11 16:37:00,78.1,66.5,29.87,North,0,0.0,0.0,67,0.00,RMK 73.6/56.0,,0.00,WUHU21623XXSP,2013-06-11 20:37:00,
2013-06-11 16:42:00,77.9,66.3,29.87,WNW,292,0.0,0.0,67,0.00,RMK 73.6/56.0,,0.00,WUHU21623XXSP,2013-06-11 20:42:00,
2013-06-11 16:47:00,77.8,66.2,29.87,NNW,337,0.0,0.0,67,0.00,RMK 73.8/56.0,,0.00,WUHU21623XXSP,2013-06-11 20:47:00,
2013-06-11 16:53:00,77.9,66.7,29.87,NNE,22,0.0,0.0,68,0.00,RMK 73.8/56.0,,0.00,WUHU21623XXSP,2013-06-11 20:53:00,
2013-06-11 16:57:00,77.9,66.3,29.87,NNW,337,0.0,0.0,67,0.00,RMK 73.8/55.0,,0.00,WUHU21623XXSP,2013-06-11 20:57:00,
2013-06-11 17:02:00,77.9,66.3,29.86,NNE,22,0.0,0.0,67,0.00,RMK 73.8/55.0,,0.00,WUHU21623XXSP,2013-06-11 21:02:00,
2013-06-11 17:07:00,78.1,66.9,29.86,West,270,0.0,0.0,68,0.00,RMK 73.8/55.0,,0.00,WUHU21623XXSP,2013-06-11 21:07:00,
2013-06-11 17:12:00,78.1,66.0,29.86,North,0,0.0,0.0,66,0.00,RMK 73.8/55.0,,0.00,WUHU21623XXSP,2013-06-11 21:12:00,
2013-06-11 17:17:00,78.1,66.0,29.87,North,0,0.0,0.0,66,0.00,RMK 73.9/55.0,,0.00,WUHU21623XXSP,2013-06-11 21:17:00,
2013-06-11 17:22:00,78.3,66.2,29.87,WNW,292,0.0,0.0,66,0.00,RMK 73.9/55.0,,0.00,WUHU21623XXSP,2013-06-11 21:22:00,
2013-06-11 17:27:00,78.1,66.0,29.87,NNE,22,0.0,0.0,66,0.00,RMK 73.9/54.0,,0.00,WUHU21623XXSP,2013-06-11 21:27:00,
2013-06-11 17:32:00,77.9,66.3,29.87,North,0,0.0,0.0,67,0.00,RMK 73.9/54.0,,0.00,WUHU21623XXSP,2013-06-11 21:32:00,
2013-06-11 17:37:00,77.8,65.8,29.86,WNW,292,0.0,0.0,66,0.00,RMK 73.9/54.0,,0.00,WUHU21623XXSP,2013-06-11 21:37:00,
2013-06-11 17:42:00,77.6,66.4,29.87,WSW,247,0.0,0.0,68,0.00,RMK 73.9/54.0,,0.00,WUHU21623XXSP,2013-06-11 21:42:00,
2013-06-11 17:47:00,77.4,65.8,29.86,WNW,292,0.0,0.0,67,0.00,RMK 73.9/54.0,,0.00,WUHU21623XXSP,2013-06-11 21:47:00,
2013-06-11 17:52:00,77.2,65.6,29.86,WSW,247,0.0,0.0,67,0.00,RMK 73.9/54.0,,0.00,WUHU21623XXSP,2013-06-11 21:52:00,
2013-06-11 17:57:00,77.2,66.0,29.87,WSW,247,0.0,0.0,68,0.00,RMK 73.9/54.0,,0.00,WUHU21623XXSP,2013-06-11 21:57:00,
2013-06-11 18:02:00,77.2,66.5,29.86,West,270,0.0,0.0,69,0.00,RMK 74.1/53.0,,0.00,WUHU21623XXSP,2013-06-11 22:02:00,
2013-06-11 18:07:00,77.0,66.3,29.86,North,0,0.0,0.0,69,0.00,RMK 74.1/53.0,,0.00,WUHU21623XXSP,2013-06-11 22:07:00,
2013-06-11 18:12:00,77.2,66.5,29.86,NW,315,0.0,0.0,69,0.00,RMK 74.1/53.0,,0.00,WUHU21623XXSP,2013-06-11 22:12:00,
2013-06-11 18:17:00,77.2,66.9,29.85,NNW,337,0.0,0.0,70,0.00,RMK 74.1/53.0,,0.00,WUHU21623XXSP,2013-06-11 22:17:00,
2013-06-11 18:22:00,77.0,66.7,29.84,North,0,0.0,0.0,70,0.00,RMK 74.1/53.0,,0.00,WUHU21623XXSP,2013-06-11 22:22:00,
2013-06-11 18:27:00,77.0,66.3,29.84,NNW,337,0.0,0.0,69,0.00,RMK 74.1/53.0,,0.00,WUHU21623XXSP,2013-06-11 22:27:00,
2013-06-11 18:32:00,77.0,66.7,29.84,NNW,337,0.0,0.0,70,0.00,RMK 74.1/53.0,,0.00,WUHU21623XXSP,2013-06-11 22:32:00,
2013-06-11 18:37:00,76.9,66.6,29.84,NW,315,0.0,0.0,70,0.00,RMK 74.1/53.0,,0.00,WUHU21623XXSP,2013-06-11 22:37:00,
2013-06-11 18:42:00,76.7,66.0,29.84,NW,315,0.0,0.0,69,0.00,RMK 74.1/52.0,,0.00,WUHU21623XXSP,2013-06-11 22:42:00,
2013-06-11 18:47:00,76.7,66.0,29.84,WNW,292,0.0,0.0,69,0.00,RMK 74.1/53.0,,0.00,WUHU21623XXSP,2013-06-11 22:47:00,
2013-06-11 18:53:00,76.7,66.0,29.84,WNW,292,0.0,0.0,69,0.00,RMK 74.1/53.0,,0.00,WUHU21623XXSP,2013-06-11 22:53:00,
2013-06-11 18:58:00,76.7,66.4,29.84,WNW,292,0.0,0.0,70,0.00,RMK 74.1/52.0,,0.00,WUHU21623XXSP,2013-06-11 22:58:00,
2013-06-11 19:03:00,76.7,66.8,29.84,WNW,292,0.0,0.0,71,0.00,RMK 74.1/53.0,,0.00,WUHU21623XXSP,2013-06-11 23:03:00,
2013-06-11 19:08:00,76.5,66.6,29.84,WNW,292,0.0,0.0,71,0.00,RMK 74.1/53.0,,0.00,WUHU21623XXSP,2013-06-11 23:08:00,
2013-06-11 19:13:00,76.5,66.2,29.84,WNW,292,0.0,0.0,70,0.00,RMK 74.1/53.0,,0.00,WUHU21623XXSP,2013-06-11 23:13:00,
2013-06-11 19:18:00,76.5,66.6,29.84,WNW,292,0.0,0.0,71,0.00,RMK 74.1/53.0,,0.00,WUHU21623XXSP,2013-06-11 23:18:00,
2013-06-11 19:23:00,76.7,68.0,29.85,WNW,292,0.0,0.0,74,0.00,RMK 74.1/53.0,,0.00,WUHU21623XXSP,2013-06-11 23:23:00,
2013-06-11 19:28:00,76.3,67.2,29.85,WNW,292,0.0,0.0,73,0.00,RMK 74.3/53.0,,0.00,WUHU21623XXSP,2013-06-11 23:28:00,
2013-06-11 19:33:00,76.3,67.2,29.85,WNW,292,0.0,0.0,73,0.00,RMK 74.3/53.0,,0.00,WUHU21623XXSP,2013-06-11 23:33:00,
2013-06-11 19:38:00,76.1,67.0,29.85,WNW,292,0.0,0.0,73,0.00,RMK 74.5/52.0,,0.00,WUHU21623XXSP,2013-06-11 23:38:00,
2013-06-11 19:43:00,75.8,66.7,29.84,WNW,292,0.0,0.0,73,0.00,RMK 74.5/52.0,,0.00,WUHU21623XXSP,2013-06-11 23:43:00,
2013-06-11 19:48:00,75.8,66.7,29.84,WNW,292,0.0,0.0,73,0.00,RMK 74.5/52.0,,0.00,WUHU21623XXSP,2013-06-11 23:48:00,
2013-06-11 19:53:00,75.8,66.7,29.85,WNW,292,0.0,0.0,73,0.00,RMK 74.5/52.0,,0.00,WUHU21623XXSP,2013-06-11 23:53:00,
2013-06-11 19:57:00,75.8,67.1,29.84,WNW,292,0.0,0.0,74,0.00,RMK 74.5/52.0,,0.00,WUHU21623XXSP,2013-06-11 23:57:00,
2013-06-11 20:03:00,75.8,67.5,29.84,WNW,292,0.0,0.0,75,0.00,RMK 74.7/52.0,,0.00,WUHU21623XXSP,2013-06-12 00:03:00,
2013-06-11 20:07:00,75.8,67.5,29.84,WNW,292,0.0,0.0,75,0.00,RMK 74.7/51.0,,0.00,WUHU21623XXSP,2013-06-12 00:07:00,
2013-06-11 20:12:00,75.8,67.5,29.84,WNW,292,0.0,0.0,75,0.00,RMK 74.7/52.0,,0.00,WUHU21623XXSP,2013-06-12 00:12:00,
2013-06-11 20:17:00,75.6,67.6,29.84,WNW,292,0.0,0.0,76,0.00,RMK 74.7/52.0,,0.00,WUHU21623XXSP,2013-06-12 00:17:00,
2013-06-11 20:22:00,75.4,67.5,29.84,WNW,292,0.0,0.0,76,0.00,RMK 74.8/52.0,,0.00,WUHU21623XXSP,2013-06-12 00:22:00,
2013-06-11 20:27:00,75.4,67.1,29.85,WNW,292,0.0,0.0,75,0.00,RMK 74.8/52.0,,0.00,WUHU21623XXSP,2013-06-12 00:27:00,
2013-06-11 20:32:00,75.4,67.5,29.85,WNW,292,0.0,0.0,76,0.00,RMK 74.8/51.0,,0.00,WUHU21623XXSP,2013-06-12 00:32:00,
2013-06-11 20:37:00,75.2,67.6,29.85,WNW,292,0.0,0.0,77,0.00,RMK 74.8/52.0,,0.00,WUHU21623XXSP,2013-06-12 00:37:00,
2013-06-11 20:42:00,75.2,67.6,29.85,WNW,292,0.0,0.0,77,0.00,RMK 74.8/51.0,,0.00,WUHU21623XXSP,2013-06-12 00:42:00,
2013-06-11 20:47:00,75.1,67.5,29.85,WNW,292,0.0,0.0,77,0.00,RMK 74.8/51.0,,0.00,WUHU21623XXSP,2013-06-12 00:47:00,
2013-06-11 20:52:00,74.7,67.5,29.85,WNW,292,0.0,0.0,78,0.00,RMK 75.0/51.0,,0.00,WUHU21623XXSP,2013-06-12 00:52:00,
2013-06-11 20:57:00,74.5,67.3,29.85,WNW,292,0.0,0.0,78,0.00,RMK 75.0/51.0,,0.00,WUHU21623XXSP,2013-06-12 00:57:00,
2013-06-11 21:02:00,74.5,67.3,29.85,WNW,292,0.0,0.0,78,0.00,RMK 75.0/51.0,,0.00,WUHU21623XXSP,2013-06-12 01:02:00,
2013-06-11 21:07:00,74.5,67.7,29.85,WNW,292,0.0,0.0,79,0.00,RMK 75.0/51.0,,0.00,WUHU21623XXSP,2013-06-12 01:07:00,
2013-06-11 21:12:00,74.3,67.8,29.85,WNW,292,0.0,0.0,80,0.00,RMK 75.0/51.0,,0.00,WUHU21623XXSP,2013-06-12 01:12:00,
2013-06-11 21:17:00,74.2,67.7,29.85,WNW,292,0.0,0.0,80,0.00,RMK 75.0/51.0,,0.00,WUHU21623XXSP,2013-06-12 01:17:00,
2013-06-11 21:22:00,73.8,67.3,29.85,WNW,292,0.0,0.0,80,0.00,RMK 75.0/51.0,,0.00,WUHU21623XXSP,2013-06-12 01:22:00,
2013-06-11 21:27:00,73.6,67.1,29.85,WNW,292,0.0,0.0,80,0.00,RMK 75.0/51.0,,0.00,WUHU21623XXSP,2013-06-12 01:27:00,
2013-06-11 21:32:00,73.4,66.9,29.85,WNW,292,0.0,0.0,80,0.00,RMK 75.0/51.0,,0.00,WUHU21623XXSP,2013-06-12 01:32:00,
2013-06-11 21:37:00,73.1,67.0,29.85,WNW,292,0.0,0.0,81,0.00,RMK 74.8/51.0,,0.00,WUHU21623XXSP,2013-06-12 01:37:00,
2013-06-11 21:42:00,72.9,66.8,29.85,WNW,292,0.0,0.0,81,0.00,RMK 74.8/51.0,,0.00,WUHU21623XXSP,2013-06-12 01:42:00,
2013-06-11 21:47:00,72.7,66.6,29.86,WNW,292,0.0,0.0,81,0.00,RMK 74.8/51.0,,0.00,WUHU21623XXSP,2013-06-12 01:47:00,
2013-06-11 21:52:00,72.2,66.5,29.87,WNW,292,0.0,0.0,82,0.00,RMK 74.8/51.0,,0.00,WUHU21623XXSP,2013-06-12 01:52:00,
2013-06-11 21:58:00,72.0,66.6,29.86,WNW,292,0.0,0.0,83,0.00,RMK 74.7/51.0,,0.00,WUHU21623XXSP,2013-06-12 01:58:00,
2013-06-11 22:03:00,71.8,66.4,29.87,WNW,292,0.0,0.0,83,0.00,RMK 74.7/51.0,,0.00,WUHU21623XXSP,2013-06-12 02:03:00,
2013-06-11 22:08:00,71.6,66.2,29.87,WNW,292,0.0,0.0,83,0.00,RMK 74.7/51.0,,0.00,WUHU21623XXSP,2013-06-12 02:08:00,
2013-06-11 22:13:00,71.6,66.2,29.88,NW,315,0.0,0.0,83,0.00,RMK 74.7/51.0,,0.00,WUHU21623XXSP,2013-06-12 02:13:00,
2013-06-11 22:18:00,71.6,65.9,29.88,North,0,0.0,0.0,82,0.00,RMK 74.5/51.0,,0.00,WUHU21623XXSP,2013-06-12 02:18:00,
2013-06-11 22:23:00,71.8,66.1,29.87,NNW,337,0.0,0.0,82,0.00,RMK 74.5/51.0,,0.00,WUHU21623XXSP,2013-06-12 02:23:00,
2013-06-11 22:28:00,71.8,66.1,29.88,NNW,337,0.0,0.0,82,0.00,RMK 74.5/51.0,,0.00,WUHU21623XXSP,2013-06-12 02:28:00,
2013-06-11 22:33:00,71.8,66.1,29.88,North,0,0.0,0.0,82,0.00,RMK 74.5/51.0,,0.00,WUHU21623XXSP,2013-06-12 02:33:00,
2013-06-11 22:38:00,71.6,65.9,29.88,North,0,0.0,0.0,82,0.00,RMK 74.5/51.0,,0.00,WUHU21623XXSP,2013-06-12 02:38:00,
2013-06-11 22:43:00,71.5,65.4,29.88,WNW,292,0.0,0.0,81,0.00,RMK 74.3/51.0,,0.00,WUHU21623XXSP,2013-06-12 02:43:00,
2013-06-11 22:48:00,71.3,65.2,29.88,WNW,292,0.0,0.0,81,0.00,RMK 74.3/51.0,,0.00,WUHU21623XXSP,2013-06-12 02:48:00,
2013-06-11 22:53:00,71.1,65.4,29.88,WNW,292,0.0,0.0,82,0.00,RMK 74.3/51.0,,0.00,WUHU21623XXSP,2013-06-12 02:53:00,
2013-06-11 22:58:00,70.9,65.2,29.88,NW,315,0.0,0.0,82,0.00,RMK 74.3/51.0,,0.00,WUHU21623XXSP,2013-06-12 02:58:00,
2013-06-11 23:03:00,70.7,64.7,29.88,WNW,292,0.0,0.0,81,0.00,RMK 74.3/51.0,,0.00,WUHU21623XXSP,2013-06-12 03:03:00,
2013-06-11 23:08:00,70.7,64.7,29.89,WNW,292,0.0,0.0,81,0.00,RMK 74.3/51.0,,0.00,WUHU21623XXSP,2013-06-12 03:08:00,
2013-06-11 23:13:00,70.4,64.4,29.88,WNW,292,0.0,0.0,81,0.00,RMK 74.3/52.0,,0.00,WUHU21623XXSP,2013-06-12 03:13:00,
2013-06-11 23:18:00,70.2,64.2,29.88,WNW,292,0.0,0.0,81,0.00,RMK 74.3/52.0,,0.00,WUHU21623XXSP,2013-06-12 03:18:00,
2013-06-11 23:23:00,70.0,64.0,29.88,WNW,292,0.0,0.0,81,0.00,RMK 74.3/52.0,,0.00,WUHU21623XXSP,2013-06-12 03:23:00,
2013-06-11 23:28:00,69.8,63.8,29.88,NW,315,0.0,0.0,81,0.00,RMK 74.3/52.0,,0.00,WUHU21623XXSP,2013-06-12 03:28:00,
2013-06-11 23:33:00,69.8,63.8,29.88,NW,315,0.0,0.0,81,0.00,RMK 74.3/52.0,,0.00,WUHU21623XXSP,2013-06-12 03:33:00,
2013-06-11 23:38:00,69.7,63.7,29.88,NW,315,0.0,0.0,81,0.00,RMK 74.5/53.0,,0.00,WUHU21623XXSP,2013-06-12 03:38:00,
2013-06-11 23:43:00,69.3,63.3,29.88,NW,315,0.0,0.0,81,0.00,RMK 74.5/53.0,,0.00,WUHU21623XXSP,2013-06-12 03:43:00,
2013-06-11 23:48:00,69.1,63.4,29.88,NW,315,0.0,0.0,82,0.00,RMK 74.5/53.0,,0.00,WUHU21623XXSP,2013-06-12 03:48:00,
2013-06-11 23:53:00,68.9,63.2,29.88,NNW,337,0.0,0.0,82,0.00,RMK 74.5/53.0,,0.00,WUHU21623XXSP,2013-06-12 03:53:00,
2013-06-11 23:58:00,68.9,63.2,29.89,NNW,337,0.0,0.0,82,0.00,RMK 74.5/53.0,,0.00,WUHU21623XXSP,2013-06-12 03:58:00,